Fort Saskatchewan, Canada
Current Conditions -  °F | °C
As of 10:00 PM on Saturday 25 Oct 2014 (Local Time) from CYED Reporting Station
Overcast Overcast  
Wind Chill: 35°   Ceiling: 5200
Heat Index: 43°   Visibility: 9mi
Dew Point: 25°   Wind: 16mph
Humidity: 49%   Direction: 110°ESE
Pressure: 29.54"   Gusts: NA
Location:  53.71°N, 113.21°W
Report Text: CYED 260400Z AUTO 11014KT 9SM OVC052 06/M04 A2954 RMK SLP027
Loading
Personal Weather Stations






























Interactive Weather Map
Tropical Storm Tracking
New forecast layout! Learn more

10-Day Weather Forecast

Advertisements
Track Severe Weather on mobile